createdAt,value
2023-03-14T00:02:16.109Z,61.81
2023-03-14T00:04:43.459Z,62.04
2023-03-14T00:07:12.906Z,61.93
2023-03-14T00:09:39.886Z,61.75
2023-03-14T00:12:08.366Z,61.92
2023-03-14T00:14:35.287Z,62.08
2023-03-14T00:17:02.156Z,62.10
2023-03-14T00:19:29.062Z,62.32
2023-03-14T00:21:55.961Z,62.19
2023-03-14T00:24:22.833Z,62.29
2023-03-14T00:26:49.724Z,62.42
2023-03-14T00:29:16.596Z,62.57
2023-03-14T00:31:45.957Z,62.85
2023-03-14T00:34:12.812Z,62.98
2023-03-14T00:36:39.711Z,63.17
2023-03-14T00:39:06.565Z,63.36
2023-03-14T00:41:33.455Z,63.64
2023-03-14T00:44:01.020Z,63.67
2023-03-14T00:46:28.026Z,63.59
2023-03-14T00:48:54.923Z,63.52
2023-03-14T00:51:21.795Z,63.39
2023-03-14T00:53:49.009Z,63.53
2023-03-14T00:56:16.112Z,63.51
2023-03-14T00:58:43.320Z,63.44
2023-03-14T01:01:19.129Z,63.72
2023-03-14T01:03:46.627Z,63.78
2023-03-14T01:06:19.765Z,64.19
2023-03-14T01:08:47.288Z,64.47
2023-03-14T01:11:18.772Z,64.52
2023-03-14T01:13:46.004Z,64.33
2023-03-14T01:16:14.605Z,64.26
2023-03-14T01:18:44.641Z,64.30
2023-03-14T01:21:17.999Z,64.36
2023-03-14T01:23:46.448Z,64.08
2023-03-14T01:26:17.102Z,64.16
2023-03-14T01:28:43.965Z,64.13
2023-03-14T01:31:12.618Z,64.41
2023-03-14T01:33:40.560Z,63.80
2023-03-14T01:36:09.858Z,64.07
2023-03-14T01:38:38.999Z,64.28
2023-03-14T01:41:10.335Z,64.34
2023-03-14T01:43:37.208Z,64.22
2023-03-14T01:46:13.959Z,64.35
2023-03-14T01:48:50.468Z,64.33
2023-03-14T01:51:23.742Z,64.13
2023-03-14T01:53:54.451Z,64.17
2023-03-14T01:56:21.482Z,64.11
2023-03-14T01:58:52.642Z,64.06
2023-03-14T02:01:22.727Z,64.19
2023-03-14T02:04:00.263Z,64.20
2023-03-14T02:06:39.209Z,64.22
2023-03-14T02:09:06.142Z,64.24
2023-03-14T02:11:35.732Z,64.34
2023-03-14T02:14:06.809Z,64.40
2023-03-14T02:16:58.124Z,64.61
2023-03-14T02:20:23.494Z,64.49
2023-03-14T02:22:55.616Z,64.51
2023-03-14T02:25:47.201Z,64.72
2023-03-14T02:28:14.379Z,64.59
2023-03-14T02:30:42.276Z,64.41
2023-03-14T02:33:20.679Z,64.64
2023-03-14T02:36:00.656Z,64.86
2023-03-14T02:38:42.024Z,64.88
2023-03-14T02:41:08.997Z,64.48
2023-03-14T02:43:41.354Z,64.75
2023-03-14T02:46:19.609Z,64.77
2023-03-14T02:48:58.805Z,64.67
2023-03-14T02:51:27.340Z,64.84
2023-03-14T02:53:54.312Z,64.99
2023-03-14T02:56:23.035Z,65.12
2023-03-14T02:58:50.199Z,64.99
2023-03-14T03:01:34.361Z,65.23
2023-03-14T03:04:01.387Z,65.66
2023-03-14T03:06:28.340Z,65.47
2023-03-14T03:08:55.338Z,65.73
2023-03-14T03:11:22.293Z,65.84
2023-03-14T03:13:49.190Z,65.75
2023-03-14T03:16:16.429Z,65.65
2023-03-14T03:18:43.529Z,65.57
2023-03-14T03:21:10.616Z,65.64
2023-03-14T03:23:37.658Z,65.50
2023-03-14T03:26:06.699Z,65.48
2023-03-14T03:28:33.594Z,65.57
2023-03-14T03:31:07.777Z,65.71
2023-03-14T03:33:37.815Z,65.99
2023-03-14T03:36:05.761Z,65.95
2023-03-14T03:38:36.723Z,65.93
2023-03-14T03:41:08.908Z,66.20
2023-03-14T03:43:36.347Z,66.25
2023-03-14T03:46:07.081Z,66.14
2023-03-14T03:48:35.457Z,66.08
2023-03-14T03:51:05.084Z,65.87
2023-03-14T03:53:34.099Z,65.79
2023-03-14T03:56:06.082Z,65.61
2023-03-14T03:58:34.446Z,65.53
2023-03-14T04:01:02.592Z,65.41
2023-03-14T04:03:29.806Z,65.64
2023-03-14T04:06:12.535Z,65.71
2023-03-14T04:08:42.287Z,65.77
2023-03-14T04:11:12.442Z,65.89
2023-03-14T04:13:52.658Z,65.71
2023-03-14T04:16:25.878Z,65.58
2023-03-14T04:18:58.990Z,65.69
2023-03-14T04:21:26.995Z,65.32
2023-03-14T04:23:57.241Z,65.39
2023-03-14T04:26:25.831Z,65.40
2023-03-14T04:28:52.850Z,65.29
2023-03-14T04:31:23.016Z,65.14
2023-03-14T04:33:51.060Z,64.77
2023-03-14T04:36:25.223Z,64.76
2023-03-14T04:38:52.562Z,64.63
2023-03-14T04:41:21.239Z,64.66
2023-03-14T04:43:48.183Z,64.56
2023-03-14T04:46:15.730Z,64.20
2023-03-14T04:48:44.044Z,64.17
2023-03-14T04:51:11.479Z,64.15
2023-03-14T04:53:38.360Z,64.06
2023-03-14T04:56:09.888Z,63.82
2023-03-14T04:58:39.145Z,63.63
2023-03-14T05:01:07.606Z,63.71
2023-03-14T05:03:34.475Z,63.86
2023-03-14T05:06:16.854Z,63.70
2023-03-14T05:08:43.723Z,63.56
2023-03-14T05:11:23.706Z,63.47
2023-03-14T05:14:01.909Z,63.54
2023-03-14T05:16:55.200Z,63.29
2023-03-14T05:19:37.578Z,63.56
2023-03-14T05:22:22.918Z,63.44
2023-03-14T05:25:08.109Z,63.47
2023-03-14T05:27:57.868Z,63.44
2023-03-14T05:30:48.292Z,63.77
2023-03-14T05:33:26.090Z,63.73
2023-03-14T05:36:28.274Z,63.75
2023-03-14T05:39:03.847Z,63.58
2023-03-14T05:41:49.341Z,63.60
2023-03-14T05:44:42.412Z,63.62
2023-03-14T05:47:15.806Z,63.49
2023-03-14T05:50:07.753Z,62.97
2023-03-14T05:52:54.932Z,63.34
2023-03-14T05:55:42.128Z,63.12
2023-03-14T05:58:16.762Z,63.33
2023-03-14T06:01:06.871Z,63.02
2023-03-14T06:03:45.239Z,62.92
2023-03-14T06:06:12.476Z,62.80
2023-03-14T06:08:39.472Z,62.70
2023-03-14T06:11:07.417Z,62.54
2023-03-14T06:13:34.343Z,62.57
2023-03-14T06:16:01.375Z,62.30
2023-03-14T06:18:28.285Z,62.23
2023-03-14T06:20:57.330Z,62.23
2023-03-14T06:23:27.005Z,61.85
2023-03-14T06:25:54.770Z,61.80
2023-03-14T06:28:25.922Z,61.79
2023-03-14T06:30:53.881Z,61.82
2023-03-14T06:33:20.860Z,61.85
2023-03-14T06:35:48.508Z,61.66
2023-03-14T06:38:15.520Z,61.53
2023-03-14T06:40:43.003Z,61.61
2023-03-14T06:43:16.369Z,61.45
2023-03-14T06:45:45.693Z,61.57
2023-03-14T06:48:12.742Z,61.58
2023-03-14T06:50:46.475Z,61.52
2023-03-14T06:53:14.014Z,61.41
2023-03-14T06:55:44.273Z,61.37
2023-03-14T06:58:11.621Z,60.96
2023-03-14T07:00:42.785Z,60.76
2023-03-14T07:03:16.301Z,60.67
2023-03-14T07:05:46.681Z,60.57
2023-03-14T07:08:13.708Z,60.07
2023-03-14T07:10:40.556Z,60.23
2023-03-14T07:13:08.730Z,60.14
2023-03-14T07:15:43.901Z,60.23
2023-03-14T07:18:11.211Z,59.87
2023-03-14T07:20:38.081Z,59.84
2023-03-14T07:23:06.347Z,59.50
2023-03-14T07:25:51.694Z,59.54
2023-03-14T07:28:20.494Z,59.45
2023-03-14T07:30:49.306Z,58.74
2023-03-14T07:33:24.272Z,58.27
2023-03-14T07:35:51.733Z,58.88
2023-03-14T07:38:21.474Z,58.65
2023-03-14T07:41:09.963Z,58.49
2023-03-14T07:43:42.394Z,58.55
2023-03-14T07:46:09.556Z,57.93
2023-03-14T07:48:36.531Z,58.00
2023-03-14T07:51:03.480Z,57.42
2023-03-14T07:53:30.384Z,57.28
2023-03-14T07:55:57.341Z,56.59
2023-03-14T07:58:24.260Z,56.41
2023-03-14T08:00:52.947Z,56.41
2023-03-14T08:03:20.473Z,56.44
2023-03-14T08:05:51.733Z,56.11
2023-03-14T08:08:19.153Z,55.90
2023-03-14T08:10:47.266Z,54.98
2023-03-14T08:13:14.681Z,54.11
2023-03-14T08:15:41.836Z,54.86
2023-03-14T08:18:08.731Z,54.90
2023-03-14T08:20:36.975Z,54.28
2023-03-14T08:23:04.128Z,53.60
2023-03-14T08:33:12.395Z,52.85
2023-03-14T08:35:39.635Z,52.80
2023-03-14T08:38:06.513Z,52.63
2023-03-14T08:40:33.370Z,51.91
2023-03-14T08:43:00.225Z,51.60
2023-03-14T08:45:27.067Z,51.90
2023-03-14T08:47:53.986Z,51.77
2023-03-14T08:50:20.925Z,51.69
2023-03-14T08:52:47.804Z,50.52
2023-03-14T08:55:15.232Z,50.19
2023-03-14T08:57:42.286Z,50.09
2023-03-14T09:00:13.339Z,50.15
2023-03-14T09:02:40.232Z,49.74
2023-03-14T09:05:08.464Z,49.44
2023-03-14T09:07:35.353Z,49.90
2023-03-14T09:10:02.281Z,50.14
2023-03-14T09:12:29.171Z,49.50
2023-03-14T09:14:56.184Z,49.71
2023-03-14T09:17:23.459Z,48.37
2023-03-14T09:19:50.329Z,48.99
2023-03-14T09:22:17.249Z,48.68
2023-03-14T09:24:44.140Z,48.69
2023-03-14T09:27:11.079Z,48.28
2023-03-14T09:29:37.954Z,48.57
2023-03-14T09:32:04.976Z,48.49
2023-03-14T09:34:31.964Z,48.54
2023-03-14T09:36:58.868Z,48.47
2023-03-14T09:39:25.838Z,47.73
2023-03-14T09:41:55.890Z,47.83
2023-03-14T09:44:29.069Z,48.44
2023-03-14T09:47:01.660Z,48.11
2023-03-14T09:49:37.858Z,48.25
2023-03-14T09:52:26.248Z,47.89
2023-03-14T09:55:01.101Z,48.11
2023-03-14T09:57:28.765Z,47.54
2023-03-14T10:00:14.000Z,47.50
2023-03-14T10:02:43.234Z,48.00
2023-03-14T10:05:18.908Z,47.80
2023-03-14T10:07:45.971Z,47.18
2023-03-14T10:10:25.245Z,47.81
2023-03-14T10:13:18.868Z,47.48
2023-03-14T10:16:08.783Z,48.28
2023-03-14T10:18:35.776Z,48.25
2023-03-14T10:21:29.004Z,48.40
2023-03-14T10:23:55.886Z,47.77
2023-03-14T10:26:28.886Z,48.10
2023-03-14T10:29:09.941Z,47.84
2023-03-14T10:32:06.156Z,47.43
2023-03-14T10:34:37.677Z,47.89
2023-03-14T10:37:26.876Z,47.90
2023-03-14T10:39:56.603Z,48.01
2023-03-14T10:42:35.006Z,46.59
2023-03-14T10:45:27.255Z,45.79
2023-03-14T10:47:54.153Z,45.35
2023-03-14T10:50:31.746Z,45.78
2023-03-14T10:53:06.303Z,46.34
2023-03-14T10:55:43.975Z,45.86
2023-03-14T10:58:33.744Z,45.45
2023-03-14T11:01:38.708Z,44.44
2023-03-14T11:04:47.828Z,44.49
2023-03-14T11:07:28.742Z,44.22
2023-03-14T11:10:20.620Z,44.53
2023-03-14T11:13:07.838Z,44.23
2023-03-14T11:16:03.482Z,44.23
2023-03-14T11:18:54.641Z,43.83
2023-03-14T11:22:09.370Z,43.03
2023-03-14T11:25:03.498Z,43.53
2023-03-14T11:27:44.680Z,43.68
2023-03-14T11:30:21.862Z,44.34
2023-03-14T11:33:09.073Z,44.21
2023-03-14T11:35:54.797Z,44.24
2023-03-14T11:38:35.507Z,45.53
2023-03-14T11:41:02.714Z,46.27
2023-03-14T11:43:39.140Z,47.14
2023-03-14T11:46:24.497Z,47.09
2023-03-14T11:49:22.327Z,47.61
2023-03-14T11:51:53.575Z,47.01
2023-03-14T11:54:47.950Z,47.42
2023-03-14T11:57:21.334Z,47.46
2023-03-14T12:00:04.000Z,47.39
2023-03-14T12:03:09.391Z,46.53
2023-03-14T12:06:04.004Z,45.59
2023-03-14T12:08:55.462Z,44.96
2023-03-14T12:11:37.128Z,45.80
2023-03-14T12:14:04.710Z,45.18
2023-03-14T12:16:38.511Z,44.32
2023-03-14T12:19:22.206Z,44.32
2023-03-14T12:21:59.216Z,45.14
2023-03-14T12:24:32.860Z,44.81
2023-03-14T12:27:02.765Z,45.36
2023-03-14T12:29:31.147Z,45.20
2023-03-14T12:32:28.429Z,45.27
2023-03-14T12:34:55.467Z,45.25
2023-03-14T12:37:37.812Z,45.52
2023-03-14T12:40:31.340Z,45.53
2023-03-14T12:43:05.132Z,45.30
2023-03-14T12:45:36.783Z,44.64
2023-03-14T12:48:28.217Z,45.10
2023-03-14T12:51:01.892Z,44.67
2023-03-14T12:54:02.305Z,45.25
2023-03-14T12:56:59.174Z,45.77
2023-03-14T12:59:48.109Z,45.02
2023-03-14T13:02:41.422Z,45.18
2023-03-14T13:05:26.118Z,45.50
2023-03-14T13:07:56.248Z,45.69
2023-03-14T13:10:40.298Z,46.06
2023-03-14T13:13:22.766Z,46.56
2023-03-14T13:15:58.772Z,46.50
2023-03-14T13:18:29.831Z,46.28
2023-03-14T13:21:22.398Z,46.35
2023-03-14T13:23:57.481Z,46.44
2023-03-14T13:26:35.051Z,45.87
2023-03-14T13:29:27.182Z,45.46
2023-03-14T13:32:01.461Z,43.88
2023-03-14T13:34:33.952Z,43.64
2023-03-14T13:37:01.620Z,44.15
2023-03-14T13:39:30.393Z,45.03
2023-03-14T13:42:02.352Z,46.30
2023-03-14T13:44:37.397Z,47.26
2023-03-14T13:47:11.364Z,47.83
2023-03-14T13:49:39.174Z,48.36
2023-03-14T13:52:39.465Z,48.51
2023-03-14T13:55:16.090Z,48.87
2023-03-14T13:57:49.335Z,49.38
2023-03-14T14:00:28.144Z,50.22
2023-03-14T14:02:57.327Z,50.38
2023-03-14T14:05:28.527Z,50.79
2023-03-14T14:07:55.863Z,51.07
2023-03-14T14:10:23.202Z,51.68
2023-03-14T14:12:58.537Z,52.29
2023-03-14T14:15:30.218Z,51.34
2023-03-14T14:18:07.014Z,51.99
2023-03-14T14:20:38.158Z,51.67
2023-03-14T14:23:08.810Z,52.29
2023-03-14T14:25:35.889Z,51.93
2023-03-14T14:28:33.345Z,52.29
2023-03-14T14:31:25.152Z,52.51
2023-03-14T14:34:02.854Z,51.98
2023-03-14T14:36:40.506Z,51.26
2023-03-14T14:39:19.690Z,50.95
2023-03-14T14:41:50.874Z,50.87
2023-03-14T14:44:29.220Z,51.18
2023-03-14T14:46:57.478Z,51.61
2023-03-14T14:49:33.313Z,51.84
2023-03-14T14:52:21.557Z,52.27
2023-03-14T14:54:59.591Z,53.09
2023-03-14T14:57:34.929Z,53.38
2023-03-14T15:00:20.290Z,54.12
2023-03-14T15:02:50.318Z,54.38
2023-03-14T15:05:27.745Z,54.75
2023-03-14T15:07:55.218Z,55.23
2023-03-14T15:10:25.556Z,55.62
2023-03-14T15:12:53.106Z,55.64
2023-03-14T15:15:20.150Z,55.77
2023-03-14T15:17:47.029Z,56.25
2023-03-14T15:20:17.538Z,56.40
2023-03-14T15:22:44.998Z,56.76
2023-03-14T15:25:31.584Z,56.78
2023-03-14T15:27:59.426Z,56.90
2023-03-14T15:30:26.298Z,57.26
2023-03-14T15:32:53.308Z,57.32
2023-03-14T15:35:20.302Z,57.67
2023-03-14T15:37:47.391Z,57.50
2023-03-14T15:40:15.320Z,58.09
2023-03-14T15:42:42.817Z,58.06
2023-03-14T15:45:10.362Z,58.64
2023-03-14T15:47:37.282Z,58.47
2023-03-14T15:50:05.399Z,58.24
2023-03-14T15:52:32.303Z,58.85
2023-03-14T15:54:59.207Z,59.04
2023-03-14T15:57:26.092Z,59.04
2023-03-14T15:59:53.228Z,58.90
2023-03-14T16:02:20.089Z,58.96
2023-03-14T16:04:47.129Z,59.20
2023-03-14T16:07:14.081Z,59.29
2023-03-14T16:09:40.969Z,59.25
2023-03-14T16:12:09.705Z,58.95
2023-03-14T16:14:36.648Z,59.30
2023-03-14T16:17:03.564Z,59.31
2023-03-14T16:19:32.010Z,59.55
2023-03-14T16:21:58.952Z,59.59
2023-03-14T16:24:25.853Z,59.70
2023-03-14T16:26:52.739Z,59.77
2023-03-14T16:29:19.640Z,59.60
2023-03-14T16:31:47.367Z,59.58
2023-03-14T16:34:15.061Z,59.86
2023-03-14T16:36:41.938Z,60.00
2023-03-14T16:39:08.809Z,60.33
2023-03-14T16:41:35.689Z,60.16
2023-03-14T16:44:02.964Z,60.22
2023-03-14T16:46:30.780Z,60.24
2023-03-14T16:48:57.929Z,60.20
2023-03-14T16:51:25.196Z,60.49
2023-03-14T16:53:52.162Z,60.24
2023-03-14T16:56:19.093Z,60.43
2023-03-14T16:58:47.746Z,60.30
2023-03-14T17:01:18.228Z,60.35
2023-03-14T17:03:50.497Z,60.65
2023-03-14T17:06:27.406Z,60.35
2023-03-14T17:08:55.981Z,60.26
2023-03-14T17:11:24.709Z,60.59
2023-03-14T17:13:51.770Z,60.54
2023-03-14T17:16:19.630Z,60.37
2023-03-14T17:18:46.809Z,60.05
2023-03-14T17:21:13.704Z,59.94
2023-03-14T17:23:41.089Z,59.56
2023-03-14T17:26:08.094Z,59.22
2023-03-14T17:28:35.386Z,58.13
2023-03-14T17:31:17.560Z,57.80
2023-03-14T17:33:45.176Z,57.26
2023-03-14T17:36:15.640Z,56.91
2023-03-14T17:38:42.692Z,56.59
2023-03-14T17:41:14.859Z,55.52
2023-03-14T17:43:42.761Z,55.48
2023-03-14T17:46:14.735Z,55.15
2023-03-14T17:48:43.257Z,54.94
2023-03-14T17:51:10.466Z,54.84
2023-03-14T17:53:38.495Z,54.55
2023-03-14T17:56:05.796Z,54.65
2023-03-14T17:58:37.782Z,53.81
2023-03-14T18:01:18.883Z,53.90
2023-03-14T18:03:46.086Z,53.33
2023-03-14T18:06:16.046Z,53.28
2023-03-14T18:08:43.913Z,53.17
2023-03-14T18:11:12.348Z,52.93
2023-03-14T18:13:40.404Z,53.09
2023-03-14T18:16:09.166Z,53.15
2023-03-14T18:18:36.151Z,53.15
2023-03-14T18:21:03.101Z,52.86
2023-03-14T18:23:29.975Z,52.62
2023-03-14T18:26:00.144Z,52.11
2023-03-14T18:28:28.966Z,51.92
2023-03-14T18:31:19.027Z,52.36
2023-03-14T18:33:47.815Z,52.01
2023-03-14T18:36:15.273Z,51.67
2023-03-14T18:38:46.721Z,51.99
2023-03-14T18:41:16.809Z,51.72
2023-03-14T18:43:43.930Z,51.60
2023-03-14T18:46:11.978Z,51.61
2023-03-14T18:48:42.361Z,51.86
2023-03-14T18:51:12.732Z,51.97
2023-03-14T18:53:39.859Z,51.89
2023-03-14T18:56:07.258Z,52.01
2023-03-14T18:58:34.497Z,51.93
2023-03-14T19:01:03.462Z,51.91
2023-03-14T19:03:32.099Z,51.96
2023-03-14T19:05:59.722Z,52.18
2023-03-14T19:08:28.218Z,52.33
2023-03-14T19:10:59.020Z,52.35
2023-03-14T19:13:27.480Z,52.43
2023-03-14T19:15:54.413Z,52.43
2023-03-14T19:18:21.417Z,52.48
2023-03-14T19:20:58.772Z,52.85
2023-03-14T19:23:26.701Z,52.93
2023-03-14T19:25:54.520Z,53.42
2023-03-14T19:28:21.753Z,53.32
2023-03-14T19:30:49.486Z,53.53
2023-03-14T19:33:18.311Z,53.48
2023-03-14T19:35:45.980Z,53.64
2023-03-14T19:38:14.218Z,53.45
2023-03-14T19:40:44.880Z,53.35
2023-03-14T19:43:11.846Z,53.39
2023-03-14T19:45:39.021Z,53.02
2023-03-14T19:48:07.222Z,53.15
2023-03-14T19:50:34.556Z,52.96
2023-03-14T19:53:03.537Z,52.60
2023-03-14T19:55:35.179Z,51.94
2023-03-14T19:58:02.337Z,51.44
2023-03-14T20:00:29.508Z,49.85
2023-03-14T20:02:56.586Z,50.30
2023-03-14T20:05:24.403Z,50.64
2023-03-14T20:07:51.722Z,50.03
2023-03-14T20:10:22.938Z,50.12
2023-03-14T20:12:51.086Z,50.37
2023-03-14T20:15:20.256Z,50.13
2023-03-14T20:17:48.947Z,50.01
2023-03-14T20:20:17.149Z,50.01
2023-03-14T20:22:44.680Z,49.88
2023-03-14T20:25:14.946Z,50.07
2023-03-14T20:27:42.615Z,49.98
2023-03-14T20:30:13.922Z,50.02
2023-03-14T20:32:41.634Z,49.91
2023-03-14T20:35:11.528Z,50.15
2023-03-14T20:37:39.846Z,50.40
2023-03-14T20:40:09.248Z,49.93
2023-03-14T20:42:36.136Z,50.55
2023-03-14T20:45:03.134Z,50.34
2023-03-14T20:47:29.997Z,50.67
2023-03-14T20:49:56.872Z,50.71
2023-03-14T20:52:23.771Z,50.92
2023-03-14T20:54:50.642Z,50.74
2023-03-14T20:57:17.673Z,51.22
2023-03-14T20:59:44.586Z,51.01
2023-03-14T21:02:11.880Z,51.19
2023-03-14T21:04:38.980Z,50.91
2023-03-14T21:07:05.962Z,51.20
2023-03-14T21:09:33.494Z,51.49
2023-03-14T21:12:00.410Z,51.48
2023-03-14T21:14:27.304Z,51.75
2023-03-14T21:16:56.969Z,51.36
2023-03-14T21:19:30.952Z,51.55
2023-03-14T21:22:04.039Z,51.58
2023-03-14T21:24:31.816Z,51.34
2023-03-14T21:26:58.843Z,51.44
2023-03-14T21:29:25.745Z,51.67
2023-03-14T21:31:52.848Z,51.38
2023-03-14T21:34:21.069Z,51.34
2023-03-14T21:36:49.044Z,51.80
2023-03-14T21:39:16.344Z,51.52
2023-03-14T21:41:43.231Z,51.83
2023-03-14T21:44:11.300Z,51.61
2023-03-14T21:46:38.277Z,51.85
2023-03-14T21:49:05.157Z,51.78
2023-03-14T21:51:35.661Z,51.60
2023-03-14T21:54:09.878Z,51.82
2023-03-14T21:56:37.797Z,52.22
2023-03-14T21:59:05.276Z,52.16
2023-03-14T22:01:32.834Z,52.05
2023-03-14T22:03:59.953Z,52.10
2023-03-14T22:06:28.125Z,52.41
2023-03-14T22:08:55.352Z,52.06
2023-03-14T22:11:23.964Z,52.62
2023-03-14T22:13:50.831Z,52.15
2023-03-14T22:16:17.725Z,52.02
2023-03-14T22:18:45.469Z,52.33
2023-03-14T22:21:12.370Z,52.64
2023-03-14T22:23:39.264Z,52.37
2023-03-14T22:26:06.114Z,52.45
2023-03-14T22:28:33.054Z,53.04
2023-03-14T22:31:02.903Z,53.11
2023-03-14T22:33:31.285Z,52.86
2023-03-14T22:35:58.368Z,52.81
2023-03-14T22:38:25.680Z,53.32
2023-03-14T22:40:52.622Z,53.01
2023-03-14T22:43:19.650Z,53.21
2023-03-14T22:45:47.201Z,53.17
2023-03-14T22:48:15.213Z,53.63
2023-03-14T22:50:42.242Z,53.60
2023-03-14T22:53:09.136Z,53.81
2023-03-14T22:55:36.024Z,53.92
2023-03-14T22:58:03.444Z,53.66
2023-03-14T23:00:31.786Z,53.95
2023-03-14T23:02:58.734Z,53.87
2023-03-14T23:05:26.138Z,54.20
2023-03-14T23:07:53.931Z,53.92
2023-03-14T23:10:20.880Z,54.05
2023-03-14T23:12:47.905Z,54.28
2023-03-14T23:15:16.126Z,54.41
2023-03-14T23:17:44.487Z,54.28
2023-03-14T23:20:13.186Z,54.69
2023-03-14T23:22:40.368Z,54.55
2023-03-14T23:25:08.964Z,54.96
2023-03-14T23:27:36.464Z,54.69
2023-03-14T23:30:04.765Z,54.62
2023-03-14T23:32:32.058Z,54.74
2023-03-14T23:34:58.958Z,55.11
2023-03-14T23:37:26.001Z,55.01
2023-03-14T23:39:53.093Z,54.92
2023-03-14T23:42:20.033Z,55.40
2023-03-14T23:44:46.935Z,55.40
2023-03-14T23:47:13.899Z,55.35
2023-03-14T23:49:41.714Z,55.57
2023-03-14T23:52:09.321Z,55.67
2023-03-14T23:54:36.786Z,55.84
2023-03-14T23:57:05.430Z,55.64
2023-03-14T23:59:33.763Z,55.49
